createdAt,value
2023-01-20T00:01:33.626Z,100.00
2023-01-20T00:04:01.328Z,100.00
2023-01-20T00:06:30.480Z,100.00
2023-01-20T00:09:00.659Z,100.00
2023-01-20T00:11:29.022Z,100.00
2023-01-20T00:14:00.671Z,100.00
2023-01-20T00:16:31.065Z,100.00
2023-01-20T00:18:59.036Z,100.00
2023-01-20T00:21:26.705Z,100.00
2023-01-20T00:23:54.551Z,100.00
2023-01-20T00:26:24.563Z,100.00
2023-01-20T00:28:57.672Z,100.00
2023-01-20T00:31:28.203Z,100.00
2023-01-20T00:33:58.351Z,100.00
2023-01-20T00:36:27.750Z,100.00
2023-01-20T00:38:55.430Z,100.00
2023-01-20T00:41:23.570Z,100.00
2023-01-20T00:43:51.589Z,100.00
2023-01-20T00:46:19.367Z,100.00
2023-01-20T00:48:46.963Z,100.00
2023-01-20T00:51:15.306Z,100.00
2023-01-20T00:53:43.309Z,100.00
2023-01-20T00:56:11.327Z,100.00
2023-01-20T00:58:39.398Z,100.00
2023-01-20T01:01:07.407Z,100.00
2023-01-20T01:03:35.170Z,100.00
2023-01-20T01:06:07.720Z,100.00
2023-01-20T01:08:35.657Z,100.00
2023-01-20T01:11:04.196Z,100.00
2023-01-20T01:13:31.863Z,100.00
2023-01-20T01:15:59.475Z,100.00
2023-01-20T01:18:27.673Z,100.00
2023-01-20T01:20:55.531Z,100.00
2023-01-20T01:23:23.155Z,100.00
2023-01-20T01:25:50.788Z,100.00
2023-01-20T01:28:18.328Z,100.00
2023-01-20T01:30:46.019Z,100.00
2023-01-20T01:33:14.034Z,100.00
2023-01-20T01:35:41.945Z,100.00
2023-01-20T01:38:09.544Z,100.00
2023-01-20T01:40:37.597Z,100.00
2023-01-20T01:43:20.883Z,100.00
2023-01-20T01:45:48.606Z,100.00
2023-01-20T01:48:19.421Z,100.00
2023-01-20T01:51:14.996Z,100.00
2023-01-20T01:53:47.985Z,100.00
2023-01-20T01:56:16.785Z,100.00
2023-01-20T01:58:48.540Z,100.00
2023-01-20T02:01:16.839Z,100.00
2023-01-20T02:03:53.067Z,100.00
2023-01-20T02:06:24.810Z,100.00
2023-01-20T02:08:53.050Z,100.00
2023-01-20T02:11:21.728Z,100.00
2023-01-20T02:13:49.283Z,100.00
2023-01-20T02:16:41.162Z,100.00
2023-01-20T02:19:22.505Z,100.00
2023-01-20T02:22:10.427Z,100.00
2023-01-20T02:25:16.103Z,100.00
2023-01-20T02:27:56.023Z,100.00
2023-01-20T02:30:47.489Z,100.00
2023-01-20T02:33:30.104Z,100.00
2023-01-20T02:36:10.824Z,100.00
2023-01-20T02:38:41.285Z,100.00
2023-01-20T02:41:12.428Z,100.00
2023-01-20T02:44:02.715Z,100.00
2023-01-20T02:46:36.941Z,100.00
2023-01-20T02:49:23.379Z,100.00
2023-01-20T02:51:58.089Z,100.00
2023-01-20T02:54:30.782Z,100.00
2023-01-20T02:57:02.062Z,100.00
2023-01-20T02:59:35.505Z,100.00
2023-01-20T03:02:08.041Z,100.00
2023-01-20T03:05:04.578Z,100.00
2023-01-20T03:07:35.751Z,100.00
2023-01-20T03:10:08.206Z,100.00
2023-01-20T03:12:43.554Z,100.00
2023-01-20T03:15:12.487Z,100.00
2023-01-20T03:17:41.021Z,100.00
2023-01-20T03:20:09.300Z,100.00
2023-01-20T03:22:37.004Z,100.00
2023-01-20T03:25:05.526Z,100.00
2023-01-20T03:27:33.847Z,100.00
2023-01-20T03:30:01.678Z,100.00
2023-01-20T03:32:30.077Z,100.00
2023-01-20T03:34:58.642Z,100.00
2023-01-20T03:37:26.831Z,100.00
2023-01-20T03:39:54.325Z,100.00
2023-01-20T03:42:45.984Z,100.00
2023-01-20T03:45:20.524Z,100.00
2023-01-20T03:48:12.198Z,100.00
2023-01-20T03:51:12.478Z,100.00
2023-01-20T03:53:52.960Z,100.00
2023-01-20T03:56:42.509Z,100.00
2023-01-20T03:59:14.461Z,100.00
2023-01-20T04:01:45.084Z,100.00
2023-01-20T04:04:17.509Z,100.00
2023-01-20T04:06:48.487Z,100.00
2023-01-20T04:09:23.559Z,100.00
2023-01-20T04:11:52.202Z,100.00
2023-01-20T04:14:19.866Z,100.00
2023-01-20T04:17:07.988Z,100.00
2023-01-20T04:19:35.542Z,100.00
2023-01-20T04:22:28.777Z,100.00
2023-01-20T04:25:16.016Z,100.00
2023-01-20T04:27:43.788Z,100.00
2023-01-20T04:30:13.703Z,100.00
2023-01-20T04:32:41.312Z,100.00
2023-01-20T04:35:14.053Z,100.00
2023-01-20T04:37:42.537Z,100.00
2023-01-20T04:40:11.145Z,100.00
2023-01-20T04:42:39.176Z,100.00
2023-01-20T04:45:07.165Z,100.00
2023-01-20T04:47:35.232Z,100.00
2023-01-20T04:50:02.787Z,100.00
2023-01-20T04:52:30.521Z,100.00
2023-01-20T04:54:58.673Z,100.00
2023-01-20T04:57:26.668Z,100.00
2023-01-20T04:59:54.178Z,100.00
2023-01-20T05:02:21.871Z,100.00
2023-01-20T05:04:50.384Z,100.00
2023-01-20T05:07:18.024Z,100.00
2023-01-20T05:09:46.807Z,100.00
2023-01-20T05:12:14.527Z,100.00
2023-01-20T05:14:42.088Z,100.00
2023-01-20T05:17:09.663Z,100.00
2023-01-20T05:19:37.678Z,100.00
2023-01-20T05:22:05.874Z,100.00
2023-01-20T05:24:33.421Z,100.00
2023-01-20T05:27:01.778Z,100.00
2023-01-20T05:29:29.774Z,100.00
2023-01-20T05:31:58.109Z,100.00
2023-01-20T05:34:25.812Z,100.00
2023-01-20T05:36:54.538Z,100.00
2023-01-20T05:39:22.114Z,100.00
2023-01-20T05:41:49.839Z,100.00
2023-01-20T05:44:17.738Z,100.00
2023-01-20T05:46:45.445Z,100.00
2023-01-20T05:49:13.578Z,100.00
2023-01-20T05:51:41.627Z,100.00
2023-01-20T05:54:09.783Z,100.00
2023-01-20T05:56:37.401Z,100.00
2023-01-20T05:59:06.280Z,100.00
2023-01-20T06:01:33.764Z,100.00
2023-01-20T06:04:01.406Z,100.00
2023-01-20T06:06:29.323Z,100.00
2023-01-20T06:08:57.213Z,100.00
2023-01-20T06:11:25.272Z,100.00
2023-01-20T06:13:53.620Z,100.00
2023-01-20T06:16:21.492Z,100.00
2023-01-20T06:18:49.625Z,100.00
2023-01-20T06:21:17.128Z,100.00
2023-01-20T06:23:45.104Z,100.00
2023-01-20T06:26:16.173Z,100.00
2023-01-20T06:28:44.323Z,100.00
2023-01-20T06:31:20.149Z,100.00
2023-01-20T06:33:47.878Z,100.00
2023-01-20T06:36:17.643Z,100.00
2023-01-20T06:38:50.558Z,100.00
2023-01-20T06:41:20.274Z,100.00
2023-01-20T06:43:50.231Z,100.00
2023-01-20T06:46:18.206Z,100.00
2023-01-20T06:48:46.584Z,100.00
2023-01-20T06:51:17.147Z,100.00
2023-01-20T06:53:45.208Z,100.00
2023-01-20T06:56:14.674Z,100.00
2023-01-20T06:58:42.988Z,100.00
2023-01-20T07:01:16.258Z,100.00
2023-01-20T07:03:44.754Z,100.00
2023-01-20T07:06:22.801Z,100.00
2023-01-20T07:08:50.592Z,100.00
2023-01-20T07:11:18.502Z,100.00
2023-01-20T07:13:46.274Z,100.00
2023-01-20T07:16:16.016Z,100.00
2023-01-20T07:18:48.320Z,100.00
2023-01-20T07:21:16.066Z,100.00
2023-01-20T07:23:44.358Z,100.00
2023-01-20T07:26:14.822Z,100.00
2023-01-20T07:28:42.583Z,100.00
2023-01-20T07:31:15.788Z,100.00
2023-01-20T07:33:43.850Z,100.00
2023-01-20T07:36:12.959Z,100.00
2023-01-20T07:38:41.328Z,100.00
2023-01-20T07:41:15.991Z,100.00
2023-01-20T07:43:48.740Z,100.00
2023-01-20T07:46:17.958Z,100.00
2023-01-20T07:48:45.911Z,100.00
2023-01-20T07:51:15.591Z,100.00
2023-01-20T07:53:49.291Z,100.00
2023-01-20T07:56:25.339Z,100.00
2023-01-20T07:58:54.507Z,100.00
2023-01-20T08:01:29.854Z,100.00
2023-01-20T08:04:02.136Z,100.00
2023-01-20T08:06:30.833Z,100.00
2023-01-20T08:09:02.354Z,100.00
2023-01-20T08:11:32.207Z,100.00
2023-01-20T08:14:00.349Z,97.47
2023-01-20T08:16:27.837Z,97.40
2023-01-20T08:18:55.567Z,97.67
2023-01-20T08:21:26.570Z,99.54
2023-01-20T08:23:59.542Z,97.97
2023-01-20T08:26:29.862Z,100.00
2023-01-20T08:29:08.643Z,96.14
2023-01-20T08:31:37.065Z,93.07
2023-01-20T08:34:05.998Z,92.35
2023-01-20T08:36:37.097Z,91.07
2023-01-20T08:39:07.053Z,93.00
2023-01-20T08:41:37.673Z,93.57
2023-01-20T08:44:07.966Z,93.09
2023-01-20T08:46:39.866Z,93.73
2023-01-20T08:49:12.606Z,92.85
2023-01-20T08:51:41.364Z,94.66
2023-01-20T08:54:10.099Z,94.90
2023-01-20T08:56:37.806Z,88.91
2023-01-20T08:59:05.365Z,86.03
2023-01-20T09:01:36.281Z,87.87
2023-01-20T09:04:06.781Z,84.63
2023-01-20T09:06:44.241Z,83.54
2023-01-20T09:09:13.510Z,68.24
2023-01-20T09:11:44.792Z,63.28
2023-01-20T09:14:12.612Z,54.35
2023-01-20T09:16:42.926Z,53.73
2023-01-20T09:19:10.567Z,49.82
2023-01-20T09:21:38.207Z,47.71
2023-01-20T09:24:06.482Z,46.43
2023-01-20T09:26:38.700Z,44.84
2023-01-20T09:29:10.796Z,43.14
2023-01-20T09:31:45.191Z,42.70
2023-01-20T09:34:21.564Z,45.72
2023-01-20T09:36:58.042Z,44.69
2023-01-20T09:39:44.700Z,43.29
2023-01-20T09:42:50.203Z,44.77
2023-01-20T09:45:40.885Z,43.77
2023-01-20T09:48:42.274Z,42.53
2023-01-20T09:51:42.509Z,41.63
2023-01-20T09:54:19.239Z,40.55
2023-01-20T09:56:49.412Z,40.92
2023-01-20T09:59:28.288Z,40.34
2023-01-20T10:02:01.023Z,42.28
2023-01-20T10:04:45.221Z,42.87
2023-01-20T10:07:39.016Z,43.39
2023-01-20T10:10:19.573Z,42.36
2023-01-20T10:12:53.211Z,41.05
2023-01-20T10:15:25.315Z,41.59
2023-01-20T10:18:10.491Z,40.29
2023-01-20T10:20:56.916Z,41.79
2023-01-20T10:23:30.202Z,43.57
2023-01-20T10:26:17.200Z,42.95
2023-01-20T10:28:57.402Z,42.30
2023-01-20T10:31:28.658Z,42.55
2023-01-20T10:34:00.805Z,39.84
2023-01-20T10:36:30.866Z,40.14
2023-01-20T10:39:13.421Z,41.64
2023-01-20T10:41:47.117Z,41.42
2023-01-20T10:44:15.397Z,39.67
2023-01-20T10:47:14.585Z,39.18
2023-01-20T10:49:45.673Z,41.87
2023-01-20T10:52:16.420Z,40.33
2023-01-20T10:55:13.512Z,39.24
2023-01-20T10:57:41.407Z,40.90
2023-01-20T11:00:23.769Z,40.57
2023-01-20T11:02:52.600Z,40.99
2023-01-20T11:05:25.143Z,38.65
2023-01-20T11:07:54.425Z,39.28
2023-01-20T11:10:28.122Z,41.46
2023-01-20T11:12:57.855Z,40.62
2023-01-20T11:15:33.630Z,41.93
2023-01-20T11:18:16.927Z,42.05
2023-01-20T11:20:57.883Z,43.88
2023-01-20T11:23:42.775Z,42.27
2023-01-20T11:26:39.832Z,40.83
2023-01-20T11:29:10.569Z,41.10
2023-01-20T11:31:47.487Z,40.46
2023-01-20T11:34:24.342Z,42.33
2023-01-20T11:37:17.162Z,41.72
2023-01-20T11:39:50.847Z,39.39
2023-01-20T11:42:21.407Z,39.37
2023-01-20T11:45:20.368Z,38.99
2023-01-20T11:48:21.631Z,37.68
2023-01-20T11:50:54.428Z,37.61
2023-01-20T11:53:27.923Z,38.29
2023-01-20T11:55:58.531Z,40.08
2023-01-20T11:58:33.747Z,41.19
2023-01-20T12:01:06.691Z,41.82
2023-01-20T12:03:52.917Z,40.32
2023-01-20T12:06:31.459Z,37.99
2023-01-20T12:09:10.084Z,36.51
2023-01-20T12:11:44.476Z,36.49
2023-01-20T12:14:26.190Z,36.23
2023-01-20T12:17:02.839Z,35.42
2023-01-20T12:19:41.153Z,36.33
2023-01-20T12:22:24.155Z,38.66
2023-01-20T12:25:09.100Z,36.38
2023-01-20T12:27:43.713Z,38.69
2023-01-20T12:30:51.572Z,37.80
2023-01-20T12:33:30.726Z,36.94
2023-01-20T12:36:04.132Z,36.30
2023-01-20T12:38:41.816Z,34.25
2023-01-20T12:41:34.434Z,33.99
2023-01-20T12:44:26.616Z,35.72
2023-01-20T12:47:02.453Z,35.32
2023-01-20T12:49:46.139Z,33.47
2023-01-20T12:52:14.728Z,33.81
2023-01-20T12:54:48.654Z,33.29
2023-01-20T12:57:31.393Z,33.43
2023-01-20T13:00:17.987Z,33.58
2023-01-20T13:03:33.754Z,34.26
2023-01-20T13:06:23.371Z,33.42
2023-01-20T13:09:12.819Z,33.14
2023-01-20T13:11:49.374Z,35.41
2023-01-20T13:14:43.865Z,35.66
2023-01-20T13:17:17.222Z,34.62
2023-01-20T13:19:49.563Z,32.33
2023-01-20T13:22:23.259Z,31.99
2023-01-20T13:24:52.701Z,31.17
2023-01-20T13:27:34.455Z,32.28
2023-01-20T13:30:05.124Z,32.43
2023-01-20T13:32:43.210Z,32.33
2023-01-20T13:35:33.511Z,32.52
2023-01-20T13:38:02.292Z,32.83
2023-01-20T13:40:36.253Z,32.46
2023-01-20T13:43:26.395Z,31.95
2023-01-20T13:46:03.428Z,30.91
2023-01-20T13:48:32.631Z,30.52
2023-01-20T13:51:19.736Z,30.08
2023-01-20T13:53:47.793Z,29.66
2023-01-20T13:56:37.925Z,29.42
2023-01-20T13:59:08.832Z,30.45
2023-01-20T14:01:39.530Z,31.01
2023-01-20T14:04:15.822Z,32.89
2023-01-20T14:06:52.685Z,32.92
2023-01-20T14:09:25.239Z,33.49
2023-01-20T14:11:55.293Z,35.10
2023-01-20T14:14:27.214Z,33.55
2023-01-20T14:16:56.587Z,33.98
2023-01-20T14:19:32.318Z,35.04
2023-01-20T14:22:03.205Z,36.71
2023-01-20T14:24:35.419Z,35.56
2023-01-20T14:27:27.202Z,32.79
2023-01-20T14:29:58.257Z,31.35
2023-01-20T14:32:31.748Z,30.92
2023-01-20T14:35:01.554Z,31.04
2023-01-20T14:37:38.102Z,29.83
2023-01-20T14:40:11.425Z,29.83
2023-01-20T14:42:40.069Z,28.07
2023-01-20T14:45:22.447Z,28.56
2023-01-20T14:47:50.925Z,28.35
2023-01-20T14:50:20.191Z,32.44
2023-01-20T14:52:48.526Z,35.20
2023-01-20T14:55:35.615Z,37.15
2023-01-20T14:58:14.899Z,35.83
2023-01-20T15:00:46.121Z,36.08
2023-01-20T15:03:19.663Z,40.23
2023-01-20T15:06:05.427Z,43.32
2023-01-20T15:08:33.420Z,43.22
2023-01-20T15:11:22.989Z,47.49
2023-01-20T15:13:53.710Z,51.53
2023-01-20T15:16:31.814Z,52.85
2023-01-20T15:19:18.646Z,55.21
2023-01-20T15:21:49.370Z,57.92
2023-01-20T15:24:22.173Z,57.73
2023-01-20T15:26:52.132Z,60.18
2023-01-20T15:29:26.802Z,61.47
2023-01-20T15:31:57.584Z,63.80
2023-01-20T15:34:26.236Z,66.99
2023-01-20T15:36:55.060Z,65.72
2023-01-20T15:39:30.317Z,65.89
2023-01-20T15:41:58.711Z,65.23
2023-01-20T15:46:57.499Z,66.83
2023-01-20T15:49:25.648Z,67.52
2023-01-20T15:51:53.365Z,67.60
2023-01-20T15:54:20.879Z,68.81
2023-01-20T15:56:48.457Z,68.86
2023-01-20T15:59:18.283Z,67.86
2023-01-20T16:01:50.410Z,70.37
2023-01-20T16:04:18.621Z,71.10
2023-01-20T16:06:46.600Z,73.88
2023-01-20T16:09:20.556Z,73.70
2023-01-20T16:11:48.768Z,74.69
2023-01-20T16:14:16.399Z,74.31
2023-01-20T16:16:44.051Z,73.91
2023-01-20T16:19:15.423Z,70.58
2023-01-20T16:21:45.390Z,70.66
2023-01-20T16:24:13.341Z,71.42
2023-01-20T16:26:44.801Z,74.15
2023-01-20T16:29:13.099Z,74.42
2023-01-20T16:31:40.905Z,74.82
2023-01-20T16:34:08.524Z,73.48
2023-01-20T16:36:36.144Z,74.01
2023-01-20T16:39:04.183Z,72.85
2023-01-20T16:41:32.152Z,73.06
2023-01-20T16:43:59.829Z,72.22
2023-01-20T16:46:31.105Z,73.48
2023-01-20T16:49:03.085Z,75.34
2023-01-20T16:51:33.116Z,77.58
2023-01-20T16:54:01.311Z,75.77
2023-01-20T16:56:31.476Z,75.54
2023-01-20T16:59:02.432Z,76.49
2023-01-20T17:01:30.823Z,76.46
2023-01-20T17:04:00.526Z,77.79
2023-01-20T17:06:35.375Z,79.21
2023-01-20T17:09:05.241Z,80.92
2023-01-20T17:11:37.895Z,81.30
2023-01-20T17:14:08.316Z,82.18
2023-01-20T17:16:37.329Z,82.44
2023-01-20T17:19:05.870Z,82.46
2023-01-20T17:21:38.456Z,80.78
2023-01-20T17:24:07.430Z,82.05
2023-01-20T17:26:38.153Z,81.70
2023-01-20T17:29:07.204Z,82.00
2023-01-20T17:31:36.934Z,84.86
2023-01-20T17:34:06.107Z,82.58
2023-01-20T17:36:36.797Z,85.39
2023-01-20T17:39:05.395Z,84.44
2023-01-20T17:41:34.576Z,83.89
2023-01-20T17:44:04.127Z,82.95
2023-01-20T17:46:33.043Z,82.63
2023-01-20T17:49:11.004Z,82.98
2023-01-20T17:51:39.139Z,85.31
2023-01-20T17:54:07.198Z,85.30
2023-01-20T17:56:35.451Z,86.05
2023-01-20T17:59:03.492Z,85.30
2023-01-20T18:01:35.039Z,82.47
2023-01-20T18:04:06.347Z,82.78
2023-01-20T18:06:35.366Z,84.51
2023-01-20T18:09:04.384Z,84.34
2023-01-20T18:11:35.928Z,84.31
2023-01-20T18:14:04.798Z,86.74
2023-01-20T18:16:37.822Z,88.26
2023-01-20T18:19:05.693Z,87.30
2023-01-20T18:21:36.313Z,86.74
2023-01-20T18:24:10.204Z,88.31
2023-01-20T18:26:38.906Z,88.54
2023-01-20T18:29:15.396Z,88.59
2023-01-20T18:31:46.589Z,89.87
2023-01-20T18:34:15.853Z,89.23
2023-01-20T18:36:46.392Z,88.95
2023-01-20T18:39:17.096Z,90.72
2023-01-20T18:41:45.162Z,93.37
2023-01-20T18:44:13.071Z,94.06
2023-01-20T18:46:41.071Z,93.92
2023-01-20T18:49:11.562Z,97.54
2023-01-20T18:51:39.648Z,98.31
2023-01-20T18:54:20.997Z,100.00
2023-01-20T18:56:48.922Z,100.00
2023-01-20T18:59:16.713Z,100.00
2023-01-20T19:01:44.602Z,100.00
2023-01-20T19:04:13.485Z,100.00
2023-01-20T19:06:44.176Z,100.00
2023-01-20T19:09:13.419Z,100.00
2023-01-20T19:11:42.154Z,100.00
2023-01-20T19:14:15.020Z,100.00
2023-01-20T19:16:48.927Z,100.00
2023-01-20T19:19:19.263Z,100.00
2023-01-20T19:21:50.289Z,100.00
2023-01-20T19:24:20.461Z,100.00
2023-01-20T19:26:48.559Z,100.00
2023-01-20T19:29:17.955Z,100.00
2023-01-20T19:31:46.620Z,100.00
2023-01-20T19:34:14.493Z,100.00
2023-01-20T19:36:42.831Z,100.00
2023-01-20T19:39:10.768Z,100.00
2023-01-20T19:41:39.692Z,100.00
2023-01-20T19:44:08.027Z,100.00
2023-01-20T19:46:39.030Z,100.00
2023-01-20T19:49:07.053Z,100.00
2023-01-20T19:51:34.713Z,100.00
2023-01-20T19:54:03.426Z,100.00
2023-01-20T19:56:34.600Z,100.00
2023-01-20T19:59:02.346Z,100.00
2023-01-20T20:01:32.389Z,100.00
2023-01-20T20:04:05.575Z,100.00
2023-01-20T20:06:36.549Z,100.00
2023-01-20T20:09:11.034Z,100.00
2023-01-20T20:11:39.491Z,100.00
2023-01-20T20:14:08.841Z,100.00
2023-01-20T20:16:38.052Z,100.00
2023-01-20T20:19:08.070Z,100.00
2023-01-20T20:21:36.005Z,100.00
2023-01-20T20:24:05.747Z,100.00
2023-01-20T20:26:36.048Z,98.74
2023-01-20T20:29:06.317Z,98.38
2023-01-20T20:31:36.157Z,96.43
2023-01-20T20:34:07.046Z,92.29
2023-01-20T20:36:35.369Z,89.75
2023-01-20T20:39:04.993Z,88.19
2023-01-20T20:41:35.339Z,84.48
2023-01-20T20:44:04.772Z,83.74
2023-01-20T20:46:32.632Z,86.21
2023-01-20T20:49:02.103Z,86.67
2023-01-20T20:51:32.436Z,89.24
2023-01-20T20:54:02.643Z,86.42
2023-01-20T20:56:31.888Z,86.28
2023-01-20T20:59:03.137Z,89.29
2023-01-20T21:01:34.000Z,91.97
2023-01-20T21:04:03.612Z,92.49
2023-01-20T21:06:32.343Z,92.29
2023-01-20T21:09:00.367Z,93.59
2023-01-20T21:11:29.054Z,93.21
2023-01-20T21:13:56.771Z,96.29
2023-01-20T21:16:26.130Z,94.17
2023-01-20T21:18:56.588Z,93.42
2023-01-20T21:21:25.094Z,91.07
2023-01-20T21:23:54.887Z,88.40
2023-01-20T21:26:24.854Z,90.95
2023-01-20T21:28:53.927Z,89.32
2023-01-20T21:31:23.537Z,86.56
2023-01-20T21:33:53.925Z,87.08
2023-01-20T21:36:21.985Z,87.94
2023-01-20T21:38:50.611Z,91.04
2023-01-20T21:41:20.148Z,93.20
2023-01-20T21:44:07.436Z,92.91
2023-01-20T21:46:39.291Z,94.54
2023-01-20T21:49:27.110Z,92.40
2023-01-20T21:52:14.183Z,94.35
2023-01-20T21:54:42.102Z,93.84
2023-01-20T21:57:10.169Z,97.38
2023-01-20T21:59:38.249Z,96.69
2023-01-20T22:02:07.374Z,97.18
2023-01-20T22:04:35.107Z,96.88
2023-01-20T22:07:02.927Z,95.81
2023-01-20T22:09:30.574Z,97.92
2023-01-20T22:11:58.415Z,98.16
2023-01-20T22:14:26.361Z,98.43
2023-01-20T22:16:54.019Z,98.89
2023-01-20T22:19:21.507Z,100.00
2023-01-20T22:21:49.062Z,100.00
2023-01-20T22:24:16.903Z,100.00
2023-01-20T22:26:49.125Z,100.00
2023-01-20T22:29:17.726Z,100.00
2023-01-20T22:31:46.462Z,100.00
2023-01-20T22:34:14.381Z,100.00
2023-01-20T22:36:42.395Z,100.00
2023-01-20T22:39:12.244Z,100.00
2023-01-20T22:41:40.565Z,100.00
2023-01-20T22:44:08.387Z,100.00
2023-01-20T22:46:35.945Z,100.00
2023-01-20T22:49:03.507Z,100.00
2023-01-20T22:51:31.836Z,100.00
2023-01-20T22:54:01.281Z,100.00
2023-01-20T22:56:32.732Z,100.00
2023-01-20T22:59:00.811Z,100.00
2023-01-20T23:01:30.898Z,100.00
2023-01-20T23:04:03.346Z,100.00
2023-01-20T23:06:33.300Z,100.00
2023-01-20T23:09:03.962Z,100.00
2023-01-20T23:11:32.558Z,100.00
2023-01-20T23:14:00.335Z,100.00
2023-01-20T23:16:28.055Z,100.00
2023-01-20T23:18:56.392Z,100.00
2023-01-20T23:21:24.544Z,100.00
2023-01-20T23:23:54.879Z,100.00
2023-01-20T23:26:30.678Z,100.00
2023-01-20T23:28:58.485Z,100.00
2023-01-20T23:31:33.163Z,100.00
2023-01-20T23:34:01.228Z,100.00
2023-01-20T23:36:29.403Z,100.00
2023-01-20T23:38:57.046Z,100.00
2023-01-20T23:41:25.444Z,100.00
2023-01-20T23:43:53.392Z,100.00
2023-01-20T23:46:20.992Z,100.00
2023-01-20T23:48:49.411Z,100.00
2023-01-20T23:51:17.617Z,100.00
2023-01-20T23:53:45.632Z,100.00
2023-01-20T23:56:15.665Z,100.00
2023-01-20T23:58:44.328Z,100.00
